sensor_id;sensor_type;location;lat;lon;timestamp;pressure;altitude;pressure_sealevel;temperature;humidity
41218;BME280;26950;50.960;7.138;2023-04-27T00:00:35;100918.91;;;11.79;45.41
41218;BME280;26950;50.960;7.138;2023-04-27T00:03:02;100920.34;;;11.68;45.42
41218;BME280;26950;50.960;7.138;2023-04-27T00:05:30;100920.19;;;11.62;45.44
41218;BME280;26950;50.960;7.138;2023-04-27T00:07:57;100920.34;;;11.68;45.65
41218;BME280;26950;50.960;7.138;2023-04-27T00:10:23;100925.44;;;11.62;45.87
41218;BME280;26950;50.960;7.138;2023-04-27T00:12:50;100915.50;;;11.50;45.97
41218;BME280;26950;50.960;7.138;2023-04-27T00:15:16;100922.28;;;11.44;46.11
41218;BME280;26950;50.960;7.138;2023-04-27T00:17:43;100911.75;;;11.44;45.98
41218;BME280;26950;50.960;7.138;2023-04-27T00:20:11;100924.78;;;11.39;46.07
41218;BME280;26950;50.960;7.138;2023-04-27T00:22:37;100921.19;;;11.37;46.66
41218;BME280;26950;50.960;7.138;2023-04-27T00:25:04;100915.03;;;11.35;46.14
41218;BME280;26950;50.960;7.138;2023-04-27T00:27:31;100924.72;;;11.38;46.17
41218;BME280;26950;50.960;7.138;2023-04-27T00:29:57;100925.38;;;11.30;46.37
41218;BME280;26950;50.960;7.138;2023-04-27T00:32:24;100915.66;;;11.26;46.24
41218;BME280;26950;50.960;7.138;2023-04-27T00:34:50;100918.84;;;11.16;46.66
41218;BME280;26950;50.960;7.138;2023-04-27T00:37:18;100924.09;;;11.16;47.19
41218;BME280;26950;50.960;7.138;2023-04-27T00:39:45;100928.97;;;11.04;47.22
41218;BME280;26950;50.960;7.138;2023-04-27T00:42:11;100927.38;;;11.09;46.74
41218;BME280;26950;50.960;7.138;2023-04-27T00:44:41;100926.56;;;11.12;46.62
41218;BME280;26950;50.960;7.138;2023-04-27T00:47:08;100929.13;;;11.08;47.04
41218;BME280;26950;50.960;7.138;2023-04-27T00:49:35;100925.88;;;11.17;46.49
41218;BME280;26950;50.960;7.138;2023-04-27T00:52:02;100930.34;;;11.20;46.57
41218;BME280;26950;50.960;7.138;2023-04-27T00:54:30;100934.72;;;11.19;46.64
41218;BME280;26950;50.960;7.138;2023-04-27T00:56:56;100926.47;;;11.07;46.87
41218;BME280;26950;50.960;7.138;2023-04-27T00:59:23;100926.31;;;11.02;47.26
41218;BME280;26950;50.960;7.138;2023-04-27T01:01:50;100930.84;;;11.08;47.15
41218;BME280;26950;50.960;7.138;2023-04-27T01:04:18;100930.72;;;11.03;46.89
41218;BME280;26950;50.960;7.138;2023-04-27T01:06:46;100934.97;;;11.00;47.63
41218;BME280;26950;50.960;7.138;2023-04-27T01:09:12;100926.16;;;10.98;47.80
41218;BME280;26950;50.960;7.138;2023-04-27T01:11:41;100935.13;;;11.04;47.68
41218;BME280;26950;50.960;7.138;2023-04-27T01:14:08;100929.97;;;11.07;47.08
41218;BME280;26950;50.960;7.138;2023-04-27T01:16:35;100929.09;;;11.07;46.87
41218;BME280;26950;50.960;7.138;2023-04-27T01:19:02;100928.00;;;11.00;47.78
41218;BME280;26950;50.960;7.138;2023-04-27T01:21:29;100927.75;;;10.93;48.09
41218;BME280;26950;50.960;7.138;2023-04-27T01:23:57;100920.75;;;10.93;48.45
41218;BME280;26950;50.960;7.138;2023-04-27T01:26:23;100931.19;;;10.90;47.83
41218;BME280;26950;50.960;7.138;2023-04-27T01:28:50;100926.53;;;10.82;48.28
41218;BME280;26950;50.960;7.138;2023-04-27T01:31:16;100930.06;;;10.82;48.25
41218;BME280;26950;50.960;7.138;2023-04-27T01:33:42;100919.47;;;10.80;48.38
41218;BME280;26950;50.960;7.138;2023-04-27T01:36:09;100924.03;;;10.86;48.06
41218;BME280;26950;50.960;7.138;2023-04-27T01:38:35;100918.78;;;10.86;47.81
41218;BME280;26950;50.960;7.138;2023-04-27T01:41:04;100928.69;;;10.95;47.15
41218;BME280;26950;50.960;7.138;2023-04-27T01:43:33;100918.03;;;10.90;47.40
41218;BME280;26950;50.960;7.138;2023-04-27T01:46:04;100927.81;;;10.94;47.25
41218;BME280;26950;50.960;7.138;2023-04-27T01:48:30;100920.88;;;10.96;47.35
41218;BME280;26950;50.960;7.138;2023-04-27T01:50:57;100930.34;;;10.64;48.47
41218;BME280;26950;50.960;7.138;2023-04-27T01:53:23;100916.31;;;10.91;46.91
41218;BME280;26950;50.960;7.138;2023-04-27T01:55:50;100929.28;;;10.86;47.54
41218;BME280;26950;50.960;7.138;2023-04-27T01:58:17;100929.41;;;10.89;47.26
41218;BME280;26950;50.960;7.138;2023-04-27T02:00:44;100930.28;;;10.90;47.10
41218;BME280;26950;50.960;7.138;2023-04-27T02:03:10;100929.63;;;10.97;47.53
41218;BME280;26950;50.960;7.138;2023-04-27T02:05:37;100934.88;;;10.97;47.90
41218;BME280;26950;50.960;7.138;2023-04-27T02:08:04;100935.81;;;10.99;47.81
41218;BME280;26950;50.960;7.138;2023-04-27T02:10:30;100934.91;;;10.98;47.65
41218;BME280;26950;50.960;7.138;2023-04-27T02:12:57;100941.69;;;10.90;47.54
41218;BME280;26950;50.960;7.138;2023-04-27T02:15:24;100944.38;;;10.93;48.04
41218;BME280;26950;50.960;7.138;2023-04-27T02:17:51;100942.56;;;10.91;47.87
41218;BME280;26950;50.960;7.138;2023-04-27T02:20:17;100941.69;;;10.90;46.30
41218;BME280;26950;50.960;7.138;2023-04-27T02:22:44;100936.28;;;10.86;46.85
41218;BME280;26950;50.960;7.138;2023-04-27T02:25:11;100934.69;;;10.91;47.01
41218;BME280;26950;50.960;7.138;2023-04-27T02:27:37;100937.13;;;10.85;47.17
41218;BME280;26950;50.960;7.138;2023-04-27T02:30:05;100929.41;;;10.89;46.85
41218;BME280;26950;50.960;7.138;2023-04-27T02:32:33;100940.88;;;10.93;46.32
41218;BME280;26950;50.960;7.138;2023-04-27T02:35:00;100935.63;;;10.93;46.10
41218;BME280;26950;50.960;7.138;2023-04-27T02:37:26;100940.78;;;10.90;45.98
41218;BME280;26950;50.960;7.138;2023-04-27T02:39:53;100944.06;;;10.83;46.07
41218;BME280;26950;50.960;7.138;2023-04-27T02:42:19;100941.84;;;10.95;45.85
41218;BME280;26950;50.960;7.138;2023-04-27T02:44:46;100933.88;;;10.93;45.53
41218;BME280;26950;50.960;7.138;2023-04-27T02:47:12;100939.78;;;10.86;45.56
41218;BME280;26950;50.960;7.138;2023-04-27T02:49:40;100935.41;;;10.87;45.59
41218;BME280;26950;50.960;7.138;2023-04-27T02:52:06;100930.81;;;10.79;44.97
41218;BME280;26950;50.960;7.138;2023-04-27T02:54:33;100930.63;;;10.73;44.86
41218;BME280;26950;50.960;7.138;2023-04-27T02:57:00;100923.56;;;10.71;45.11
41218;BME280;26950;50.960;7.138;2023-04-27T02:59:26;100933.22;;;10.72;45.10
41218;BME280;26950;50.960;7.138;2023-04-27T03:01:53;100922.66;;;10.70;45.62
41218;BME280;26950;50.960;7.138;2023-04-27T03:04:19;100918.13;;;10.65;45.27
41218;BME280;26950;50.960;7.138;2023-04-27T03:06:47;100925.06;;;10.63;45.18
41218;BME280;26950;50.960;7.138;2023-04-27T03:09:14;100920.56;;;10.60;45.54
41218;BME280;26950;50.960;7.138;2023-04-27T03:11:40;100918.72;;;10.56;45.50
41218;BME280;26950;50.960;7.138;2023-04-27T03:14:06;100921.94;;;10.49;45.80
41218;BME280;26950;50.960;7.138;2023-04-27T03:16:33;100918.56;;;10.51;45.37
41218;BME280;26950;50.960;7.138;2023-04-27T03:19:00;100917.56;;;10.48;45.70
41218;BME280;26950;50.960;7.138;2023-04-27T03:21:27;100917.25;;;10.39;46.10
41218;BME280;26950;50.960;7.138;2023-04-27T03:23:55;100921.66;;;10.40;45.92
41218;BME280;26950;50.960;7.138;2023-04-27T03:26:21;100917.91;;;10.32;46.09
41218;BME280;26950;50.960;7.138;2023-04-27T03:28:48;100927.31;;;10.25;46.45
41218;BME280;26950;50.960;7.138;2023-04-27T03:31:14;100926.41;;;10.24;46.81
41218;BME280;26950;50.960;7.138;2023-04-27T03:33:41;100928.00;;;10.21;46.53
41218;BME280;26950;50.960;7.138;2023-04-27T03:36:07;100923.63;;;10.21;47.13
41218;BME280;26950;50.960;7.138;2023-04-27T03:38:34;100925.38;;;10.21;46.33
41218;BME280;26950;50.960;7.138;2023-04-27T03:41:02;100938.22;;;10.13;46.74
41218;BME280;26950;50.960;7.138;2023-04-27T03:43:29;100921.38;;;10.07;46.71
41218;BME280;26950;50.960;7.138;2023-04-27T03:45:55;100932.09;;;10.13;47.20
41218;BME280;26950;50.960;7.138;2023-04-27T03:48:23;100914.66;;;10.15;46.50
41218;BME280;26950;50.960;7.138;2023-04-27T03:50:49;100928.72;;;10.17;46.24
41218;BME280;26950;50.960;7.138;2023-04-27T03:53:16;100925.75;;;10.06;46.47
41218;BME280;26950;50.960;7.138;2023-04-27T03:55:43;100923.94;;;10.05;46.41
41218;BME280;26950;50.960;7.138;2023-04-27T03:58:12;100927.72;;;10.13;46.64
41218;BME280;26950;50.960;7.138;2023-04-27T04:00:39;100927.59;;;10.10;46.45
41218;BME280;26950;50.960;7.138;2023-04-27T04:03:06;100931.75;;;10.04;46.60
41218;BME280;26950;50.960;7.138;2023-04-27T04:05:33;100940.59;;;10.06;46.49
41218;BME280;26950;50.960;7.138;2023-04-27T04:08:00;100936.81;;;9.99;46.92
41218;BME280;26950;50.960;7.138;2023-04-27T04:10:26;100941.31;;;10.02;46.60
41218;BME280;26950;50.960;7.138;2023-04-27T04:12:53;100936.78;;;9.97;46.45
41218;BME280;26950;50.960;7.138;2023-04-27T04:15:21;100936.00;;;10.00;46.58
41218;BME280;26950;50.960;7.138;2023-04-27T04:17:47;100943.72;;;9.95;46.91
41218;BME280;26950;50.960;7.138;2023-04-27T04:20:14;100953.47;;;9.99;47.28
41218;BME280;26950;50.960;7.138;2023-04-27T04:22:40;100953.31;;;9.95;47.07
41218;BME280;26950;50.960;7.138;2023-04-27T04:25:08;100957.59;;;9.93;47.00
41218;BME280;26950;50.960;7.138;2023-04-27T04:27:35;100952.97;;;9.86;47.19
41218;BME280;26950;50.960;7.138;2023-04-27T04:30:02;100955.72;;;9.89;47.58
41218;BME280;26950;50.960;7.138;2023-04-27T04:32:32;100958.19;;;9.86;47.82
41218;BME280;26950;50.960;7.138;2023-04-27T04:35:02;100964.41;;;9.88;47.79
41218;BME280;26950;50.960;7.138;2023-04-27T04:37:32;100960.72;;;9.83;47.83
41218;BME280;26950;50.960;7.138;2023-04-27T04:39:59;100957.91;;;9.54;48.97
41218;BME280;26950;50.960;7.138;2023-04-27T04:42:25;100963.22;;;9.80;48.34
41218;BME280;26950;50.960;7.138;2023-04-27T04:44:52;100957.09;;;9.79;48.59
41218;BME280;26950;50.960;7.138;2023-04-27T04:47:19;100967.88;;;9.63;48.63
41218;BME280;26950;50.960;7.138;2023-04-27T04:49:47;100968.09;;;9.69;48.66
41218;BME280;26950;50.960;7.138;2023-04-27T04:52:13;100966.91;;;9.61;48.91
41218;BME280;26950;50.960;7.138;2023-04-27T04:54:40;100971.59;;;9.69;48.66
41218;BME280;26950;50.960;7.138;2023-04-27T04:57:07;100956.94;;;9.75;48.86
41218;BME280;26950;50.960;7.138;2023-04-27T04:59:33;100963.84;;;9.72;48.78
41218;BME280;26950;50.960;7.138;2023-04-27T05:02:00;100966.59;;;9.76;48.43
41218;BME280;26950;50.960;7.138;2023-04-27T05:04:26;100965.03;;;9.81;48.17
41218;BME280;26950;50.960;7.138;2023-04-27T05:06:54;100970.69;;;9.93;48.18
41218;BME280;26950;50.960;7.138;2023-04-27T05:09:21;100967.47;;;10.00;48.32
41218;BME280;26950;50.960;7.138;2023-04-27T05:11:47;100969.34;;;10.04;47.62
41218;BME280;26950;50.960;7.138;2023-04-27T05:14:14;100977.38;;;10.09;47.84
41218;BME280;26950;50.960;7.138;2023-04-27T05:16:40;100978.50;;;10.15;48.02
41218;BME280;26950;50.960;7.138;2023-04-27T05:19:07;100983.94;;;10.21;48.41
41218;BME280;26950;50.960;7.138;2023-04-27T05:21:33;100989.66;;;10.10;48.53
41218;BME280;26950;50.960;7.138;2023-04-27T05:24:01;100988.25;;;10.19;48.36
41218;BME280;26950;50.960;7.138;2023-04-27T05:26:28;100984.72;;;10.43;47.90
41218;BME280;26950;50.960;7.138;2023-04-27T05:28:54;100990.34;;;10.53;47.22
41218;BME280;26950;50.960;7.138;2023-04-27T05:31:21;100983.28;;;10.51;46.99
41218;BME280;26950;50.960;7.138;2023-04-27T05:33:47;100986.63;;;10.47;46.94
41218;BME280;26950;50.960;7.138;2023-04-27T05:36:13;100990.94;;;10.45;46.93
41218;BME280;26950;50.960;7.138;2023-04-27T05:38:40;100992.03;;;10.26;46.89
41218;BME280;26950;50.960;7.138;2023-04-27T05:41:08;100994.88;;;10.58;46.35
41218;BME280;26950;50.960;7.138;2023-04-27T05:43:35;100983.78;;;10.66;46.51
41218;BME280;26950;50.960;7.138;2023-04-27T05:46:03;101003.28;;;10.74;46.39
41218;BME280;26950;50.960;7.138;2023-04-27T05:48:29;101003.44;;;10.79;46.23
41218;BME280;26950;50.960;7.138;2023-04-27T05:50:59;101007.16;;;10.86;46.15
41218;BME280;26950;50.960;7.138;2023-04-27T05:53:27;101006.09;;;10.80;46.43
41218;BME280;26950;50.960;7.138;2023-04-27T05:55:53;101002.22;;;10.95;45.90
41218;BME280;26950;50.960;7.138;2023-04-27T05:58:22;100999.91;;;11.05;46.21
41218;BME280;26950;50.960;7.138;2023-04-27T06:00:48;101001.19;;;11.18;45.62
41218;BME280;26950;50.960;7.138;2023-04-27T06:03:15;101002.53;;;11.32;45.57
41218;BME280;26950;50.960;7.138;2023-04-27T06:05:41;101008.03;;;11.40;46.08
41218;BME280;26950;50.960;7.138;2023-04-27T06:08:08;101008.28;;;11.49;45.47
41218;BME280;26950;50.960;7.138;2023-04-27T06:10:35;101007.88;;;11.64;45.23
41218;BME280;26950;50.960;7.138;2023-04-27T06:13:01;101007.34;;;11.76;45.09
41218;BME280;26950;50.960;7.138;2023-04-27T06:15:29;101016.69;;;11.95;44.69
41218;BME280;26950;50.960;7.138;2023-04-27T06:17:55;101013.22;;;11.96;43.96
41218;BME280;26950;50.960;7.138;2023-04-27T06:20:22;101020.13;;;11.92;44.38
41218;BME280;26950;50.960;7.138;2023-04-27T06:22:48;101026.72;;;12.08;43.45
41218;BME280;26950;50.960;7.138;2023-04-27T06:25:15;101019.75;;;12.10;43.17
41218;BME280;26950;50.960;7.138;2023-04-27T06:27:41;101019.88;;;12.14;42.96
41218;BME280;26950;50.960;7.138;2023-04-27T06:30:09;101018.69;;;12.03;42.88
41218;BME280;26950;50.960;7.138;2023-04-27T06:32:37;101013.63;;;12.11;43.23
41218;BME280;26950;50.960;7.138;2023-04-27T06:35:04;101019.16;;;11.88;43.74
41218;BME280;26950;50.960;7.138;2023-04-27T06:37:31;101025.78;;;11.77;43.26
41218;BME280;26950;50.960;7.138;2023-04-27T06:39:57;101020.75;;;11.83;43.30
41218;BME280;26950;50.960;7.138;2023-04-27T06:42:23;101022.53;;;12.14;43.32
41218;BME280;26950;50.960;7.138;2023-04-27T06:44:52;101016.53;;;12.53;42.17
41218;BME280;26950;50.960;7.138;2023-04-27T06:47:19;101015.00;;;12.61;41.53
41218;BME280;26950;50.960;7.138;2023-04-27T06:49:47;101005.66;;;12.74;41.60
41218;BME280;26950;50.960;7.138;2023-04-27T06:52:13;101016.91;;;13.02;40.90
41218;BME280;26950;50.960;7.138;2023-04-27T06:54:40;101011.78;;;13.08;40.47
41218;BME280;26950;50.960;7.138;2023-04-27T06:57:06;101019.31;;;12.94;40.43
41218;BME280;26950;50.960;7.138;2023-04-27T06:59:33;101011.28;;;13.22;40.01
41218;BME280;26950;50.960;7.138;2023-04-27T07:01:59;101011.41;;;13.29;39.56
41218;BME280;26950;50.960;7.138;2023-04-27T07:04:26;101013.13;;;13.66;39.15
41218;BME280;26950;50.960;7.138;2023-04-27T07:06:54;101005.00;;;13.97;38.59
41218;BME280;26950;50.960;7.138;2023-04-27T07:09:21;101004.88;;;14.37;37.90
41218;BME280;26950;50.960;7.138;2023-04-27T07:11:48;101002.03;;;14.73;37.21
41218;BME280;26950;50.960;7.138;2023-04-27T07:14:14;100999.41;;;15.29;36.33
41218;BME280;26950;50.960;7.138;2023-04-27T07:16:41;101000.53;;;15.46;35.93
41218;BME280;26950;50.960;7.138;2023-04-27T07:19:08;100999.94;;;15.08;36.31
41218;BME280;26950;50.960;7.138;2023-04-27T07:21:34;101001.69;;;15.06;36.44
41218;BME280;26950;50.960;7.138;2023-04-27T07:24:02;100994.81;;;15.17;36.11
41218;BME280;26950;50.960;7.138;2023-04-27T07:26:29;100999.59;;;15.43;36.00
41218;BME280;26950;50.960;7.138;2023-04-27T07:28:57;100997.22;;;15.61;34.39
41218;BME280;26950;50.960;7.138;2023-04-27T07:31:23;100997.06;;;16.22;34.35
41218;BME280;26950;50.960;7.138;2023-04-27T07:33:50;100995.69;;;16.57;33.90
41218;BME280;26950;50.960;7.138;2023-04-27T07:36:17;100975.34;;;16.53;33.76
41218;BME280;26950;50.960;7.138;2023-04-27T07:38:43;100989.06;;;17.07;32.74
41218;BME280;26950;50.960;7.138;2023-04-27T07:41:11;100997.13;;;17.22;32.11
41218;BME280;26950;50.960;7.138;2023-04-27T07:43:38;100994.00;;;17.92;31.78
41218;BME280;26950;50.960;7.138;2023-04-27T07:46:06;100987.81;;;17.96;31.37
41218;BME280;26950;50.960;7.138;2023-04-27T07:48:32;100995.75;;;17.90;31.20
41218;BME280;26950;50.960;7.138;2023-04-27T07:50:59;100992.00;;;17.48;31.36
41218;BME280;26950;50.960;7.138;2023-04-27T07:53:25;100989.84;;;16.92;31.45
41218;BME280;26950;50.960;7.138;2023-04-27T07:55:52;100988.03;;;16.88;31.51
41218;BME280;26950;50.960;7.138;2023-04-27T07:58:20;100987.78;;;16.62;32.49
41218;BME280;26950;50.960;7.138;2023-04-27T08:00:46;100994.84;;;16.61;32.68
41218;BME280;26950;50.960;7.138;2023-04-27T08:03:12;100996.81;;;16.79;32.19
41218;BME280;26950;50.960;7.138;2023-04-27T08:05:39;100987.44;;;17.25;31.58
41218;BME280;26950;50.960;7.138;2023-04-27T08:08:05;100989.22;;;17.31;30.51
41218;BME280;26950;50.960;7.138;2023-04-27T08:10:32;100987.25;;;16.98;30.64
41218;BME280;26950;50.960;7.138;2023-04-27T08:12:58;100981.34;;;17.46;30.20
41218;BME280;26950;50.960;7.138;2023-04-27T08:15:26;100988.78;;;18.25;29.28
41218;BME280;26950;50.960;7.138;2023-04-27T08:17:53;100980.72;;;19.80;28.60
41218;BME280;26950;50.960;7.138;2023-04-27T08:20:19;100955.31;;;20.71;26.54
41218;BME280;26950;50.960;7.138;2023-04-27T08:22:46;100969.13;;;21.16;25.83
41218;BME280;26950;50.960;7.138;2023-04-27T08:25:12;100973.06;;;20.73;25.34
41218;BME280;26950;50.960;7.138;2023-04-27T08:27:39;100965.41;;;20.26;25.46
41218;BME280;26950;50.960;7.138;2023-04-27T08:30:06;100965.47;;;20.14;25.95
41218;BME280;26950;50.960;7.138;2023-04-27T08:32:34;100964.44;;;20.35;25.91
41218;BME280;26950;50.960;7.138;2023-04-27T08:35:01;100967.97;;;20.40;25.37
41218;BME280;26950;50.960;7.138;2023-04-27T08:37:27;100958.22;;;20.34;25.84
41218;BME280;26950;50.960;7.138;2023-04-27T08:39:54;100953.78;;;20.38;25.81
41218;BME280;26950;50.960;7.138;2023-04-27T08:42:20;100957.28;;;20.49;25.38
41218;BME280;26950;50.960;7.138;2023-04-27T08:44:47;100957.28;;;20.47;25.50
41218;BME280;26950;50.960;7.138;2023-04-27T08:47:14;100958.16;;;20.50;25.56
41218;BME280;26950;50.960;7.138;2023-04-27T08:49:41;100956.47;;;20.33;25.70
41218;BME280;26950;50.960;7.138;2023-04-27T08:52:12;100953.69;;;20.48;25.89
41218;BME280;26950;50.960;7.138;2023-04-27T08:54:39;100950.41;;;20.04;25.85
41218;BME280;26950;50.960;7.138;2023-04-27T08:57:09;100953.31;;;19.49;26.40
41218;BME280;26950;50.960;7.138;2023-04-27T08:59:37;100963.88;;;19.73;26.70
41218;BME280;26950;50.960;7.138;2023-04-27T09:02:03;100949.31;;;20.35;25.49
41218;BME280;26950;50.960;7.138;2023-04-27T09:04:36;100954.69;;;20.32;25.20
41218;BME280;26950;50.960;7.138;2023-04-27T09:07:12;100954.97;;;19.83;26.14
41218;BME280;26950;50.960;7.138;2023-04-27T09:09:38;100952.22;;;19.99;25.87
41218;BME280;26950;50.960;7.138;2023-04-27T09:12:13;100954.31;;;19.05;26.25
41218;BME280;26950;50.960;7.138;2023-04-27T09:14:40;100953.28;;;19.64;26.89
41218;BME280;26950;50.960;7.138;2023-04-27T09:17:07;100949.25;;;20.52;25.47
41218;BME280;26950;50.960;7.138;2023-04-27T09:19:34;100955.09;;;19.44;25.73
41218;BME280;26950;50.960;7.138;2023-04-27T09:22:05;100953.34;;;19.43;25.92
41218;BME280;26950;50.960;7.138;2023-04-27T09:24:34;100952.38;;;19.53;25.43
41218;BME280;26950;50.960;7.138;2023-04-27T09:27:00;100952.53;;;18.96;26.62
41218;BME280;26950;50.960;7.138;2023-04-27T09:29:35;100948.97;;;19.09;26.66
41218;BME280;26950;50.960;7.138;2023-04-27T09:32:02;100938.06;;;19.89;26.54
41218;BME280;26950;50.960;7.138;2023-04-27T09:34:39;100938.16;;;21.01;24.93
41218;BME280;26950;50.960;7.138;2023-04-27T09:37:06;100934.69;;;20.91;24.31
41218;BME280;26950;50.960;7.138;2023-04-27T09:39:35;100943.19;;;20.23;25.42
41218;BME280;26950;50.960;7.138;2023-04-27T09:42:02;100929.88;;;20.21;26.15
41218;BME280;26950;50.960;7.138;2023-04-27T09:44:30;100937.06;;;20.13;25.92
41218;BME280;26950;50.960;7.138;2023-04-27T09:46:57;100931.97;;;19.61;26.35
41218;BME280;26950;50.960;7.138;2023-04-27T09:49:25;100931.97;;;19.64;27.20
41218;BME280;26950;50.960;7.138;2023-04-27T09:51:54;100925.66;;;19.85;27.21
41218;BME280;26950;50.960;7.138;2023-04-27T09:54:23;100922.91;;;20.02;26.96
41218;BME280;26950;50.960;7.138;2023-04-27T09:56:59;100918.91;;;20.65;27.12
41218;BME280;26950;50.960;7.138;2023-04-27T09:59:41;100917.59;;;21.12;25.55
41218;BME280;26950;50.960;7.138;2023-04-27T10:02:15;100921.69;;;21.45;25.25
41218;BME280;26950;50.960;7.138;2023-04-27T10:04:59;100919.81;;;20.61;24.98
41218;BME280;26950;50.960;7.138;2023-04-27T10:07:28;100921.38;;;19.44;26.16
41218;BME280;26950;50.960;7.138;2023-04-27T10:10:00;100923.22;;;19.19;27.08
41218;BME280;26950;50.960;7.138;2023-04-27T10:12:34;100913.53;;;18.91;27.52
41218;BME280;26950;50.960;7.138;2023-04-27T10:15:11;100908.91;;;19.63;27.13
41218;BME280;26950;50.960;7.138;2023-04-27T10:17:46;100902.47;;;20.02;26.26
41218;BME280;26950;50.960;7.138;2023-04-27T10:20:13;100899.19;;;20.83;25.62
41218;BME280;26950;50.960;7.138;2023-04-27T10:22:41;100890.06;;;21.04;25.35
41218;BME280;26950;50.960;7.138;2023-04-27T10:25:12;100897.31;;;20.94;25.95
41218;BME280;26950;50.960;7.138;2023-04-27T10:27:42;100892.75;;;21.04;25.72
41218;BME280;26950;50.960;7.138;2023-04-27T10:30:10;100892.25;;;20.68;25.20
41218;BME280;26950;50.960;7.138;2023-04-27T10:32:37;100891.47;;;20.56;25.79
41218;BME280;26950;50.960;7.138;2023-04-27T10:35:05;100885.34;;;20.35;25.44
41218;BME280;26950;50.960;7.138;2023-04-27T10:37:38;100884.19;;;20.71;26.10
41218;BME280;26950;50.960;7.138;2023-04-27T10:40:07;100880.16;;;21.18;25.63
41218;BME280;26950;50.960;7.138;2023-04-27T10:42:34;100872.63;;;21.52;25.41
41218;BME280;26950;50.960;7.138;2023-04-27T10:45:03;100872.94;;;21.26;25.19
41218;BME280;26950;50.960;7.138;2023-04-27T10:47:37;100869.31;;;21.34;24.48
41218;BME280;26950;50.960;7.138;2023-04-27T10:50:06;100872.91;;;21.30;25.28
41218;BME280;26950;50.960;7.138;2023-04-27T10:52:33;100878.66;;;20.91;25.86
41218;BME280;26950;50.960;7.138;2023-04-27T10:55:11;100868.47;;;21.27;24.63
41218;BME280;26950;50.960;7.138;2023-04-27T10:57:45;100860.69;;;21.06;25.60
41218;BME280;26950;50.960;7.138;2023-04-27T11:00:14;100863.91;;;21.40;25.31
41218;BME280;26950;50.960;7.138;2023-04-27T11:02:41;100859.97;;;20.91;24.84
41218;BME280;26950;50.960;7.138;2023-04-27T11:05:16;100860.16;;;20.73;25.12
41218;BME280;26950;50.960;7.138;2023-04-27T11:07:43;100852.50;;;21.22;25.31
41218;BME280;26950;50.960;7.138;2023-04-27T11:10:14;100854.09;;;21.40;25.78
41218;BME280;26950;50.960;7.138;2023-04-27T11:12:40;100849.13;;;21.79;25.16
41218;BME280;26950;50.960;7.138;2023-04-27T11:15:08;100856.50;;;21.60;25.21
41218;BME280;26950;50.960;7.138;2023-04-27T11:17:36;100850.47;;;22.06;25.03
41218;BME280;26950;50.960;7.138;2023-04-27T11:20:03;100846.25;;;21.91;25.45
41218;BME280;26950;50.960;7.138;2023-04-27T11:22:31;100843.75;;;21.80;25.51
41218;BME280;26950;50.960;7.138;2023-04-27T11:24:58;100843.38;;;21.43;25.40
41218;BME280;26950;50.960;7.138;2023-04-27T11:27:35;100843.69;;;21.19;25.21
41218;BME280;26950;50.960;7.138;2023-04-27T11:30:02;100829.56;;;21.08;25.82
41218;BME280;26950;50.960;7.138;2023-04-27T11:32:30;100825.16;;;21.04;25.81
41218;BME280;26950;50.960;7.138;2023-04-27T11:34:58;100837.66;;;20.98;26.75
41218;BME280;26950;50.960;7.138;2023-04-27T11:37:25;100838.34;;;21.19;26.11
41218;BME280;26950;50.960;7.138;2023-04-27T11:39:53;100833.31;;;20.91;25.67
41218;BME280;26950;50.960;7.138;2023-04-27T11:42:22;100825.22;;;21.00;26.60
41218;BME280;26950;50.960;7.138;2023-04-27T11:44:53;100826.94;;;21.06;26.02
41218;BME280;26950;50.960;7.138;2023-04-27T11:47:21;100826.06;;;21.02;24.97
41218;BME280;26950;50.960;7.138;2023-04-27T11:49:48;100824.31;;;20.05;26.87
41218;BME280;26950;50.960;7.138;2023-04-27T11:52:17;100825.75;;;20.42;26.76
41218;BME280;26950;50.960;7.138;2023-04-27T11:54:47;100825.84;;;20.33;26.86
41218;BME280;26950;50.960;7.138;2023-04-27T11:57:14;100810.66;;;20.49;27.45
41218;BME280;26950;50.960;7.138;2023-04-27T11:59:41;100811.34;;;20.66;27.27
41218;BME280;26950;50.960;7.138;2023-04-27T12:02:07;100809.34;;;20.88;26.73
41218;BME280;26950;50.960;7.138;2023-04-27T12:04:34;100808.16;;;20.23;26.65
41218;BME280;26950;50.960;7.138;2023-04-27T12:07:01;100806.22;;;20.43;27.36
41218;BME280;26950;50.960;7.138;2023-04-27T12:09:29;100808.22;;;20.20;27.01
41218;BME280;26950;50.960;7.138;2023-04-27T12:11:56;100803.88;;;20.07;27.47
41218;BME280;26950;50.960;7.138;2023-04-27T12:14:23;100811.63;;;20.37;28.36
41218;BME280;26950;50.960;7.138;2023-04-27T12:16:50;100803.28;;;20.72;27.96
41218;BME280;26950;50.960;7.138;2023-04-27T12:19:18;100804.84;;;20.93;27.51
41218;BME280;26950;50.960;7.138;2023-04-27T12:21:48;100796.47;;;20.41;26.72
41218;BME280;26950;50.960;7.138;2023-04-27T12:24:14;100799.50;;;20.93;26.30
41218;BME280;26950;50.960;7.138;2023-04-27T12:26:42;100802.91;;;21.06;26.57
41218;BME280;26950;50.960;7.138;2023-04-27T12:29:09;100805.69;;;20.95;26.62
41218;BME280;26950;50.960;7.138;2023-04-27T12:31:35;100791.78;;;20.66;25.83
41218;BME280;26950;50.960;7.138;2023-04-27T12:34:02;100786.75;;;20.34;26.82
41218;BME280;26950;50.960;7.138;2023-04-27T12:36:28;100789.84;;;20.82;26.66
41218;BME280;26950;50.960;7.138;2023-04-27T12:38:57;100788.78;;;20.96;26.49
41218;BME280;26950;50.960;7.138;2023-04-27T12:41:24;100780.03;;;20.87;25.96
41218;BME280;26950;50.960;7.138;2023-04-27T12:43:52;100779.16;;;20.83;25.89
41218;BME280;26950;50.960;7.138;2023-04-27T12:46:18;100778.50;;;20.64;25.87
41218;BME280;26950;50.960;7.138;2023-04-27T12:48:45;100778.81;;;20.29;26.83
41218;BME280;26950;50.960;7.138;2023-04-27T12:51:11;100776.91;;;20.43;26.84